createdAt,value
2022-09-06T00:01:12.054Z,20.53
2022-09-06T00:03:40.453Z,20.47
2022-09-06T00:06:10.118Z,20.69
2022-09-06T00:08:37.947Z,20.54
2022-09-06T00:11:07.034Z,20.53
2022-09-06T00:13:34.803Z,20.41
2022-09-06T00:16:07.798Z,20.58
2022-09-06T00:18:35.482Z,20.52
2022-09-06T00:21:04.299Z,20.58
2022-09-06T00:23:31.979Z,20.64
2022-09-06T00:26:07.457Z,20.55
2022-09-06T00:28:35.074Z,20.62
2022-09-06T00:34:40.423Z,20.65
2022-09-06T00:37:08.388Z,20.46
2022-09-06T00:39:36.206Z,20.36
2022-09-06T00:42:09.090Z,20.25
2022-09-06T00:44:36.676Z,20.13
2022-09-06T00:47:05.412Z,20.13
2022-09-06T00:49:34.994Z,20.20
2022-09-06T00:52:06.098Z,20.21
2022-09-06T00:54:34.128Z,20.65
2022-09-06T00:57:02.202Z,20.56
2022-09-06T00:59:32.666Z,20.40
2022-09-06T01:02:00.713Z,20.10
2022-09-06T01:04:28.847Z,20.05
2022-09-06T01:07:04.055Z,20.13
2022-09-06T01:09:42.150Z,20.54
2022-09-06T01:12:20.888Z,20.18
2022-09-06T01:15:01.923Z,20.07
2022-09-06T01:17:36.026Z,20.13
2022-09-06T01:20:24.951Z,20.68
2022-09-06T01:23:23.215Z,20.47
2022-09-06T01:26:00.971Z,20.05
2022-09-06T01:28:34.898Z,20.06
2022-09-06T01:31:11.680Z,20.05
2022-09-06T01:33:43.127Z,20.11
2022-09-06T01:36:12.395Z,20.14
2022-09-06T01:38:40.030Z,20.30
2022-09-06T01:41:07.617Z,20.36
2022-09-06T01:43:39.051Z,19.85
2022-09-06T01:46:13.948Z,19.86
2022-09-06T01:49:00.320Z,19.87
2022-09-06T01:51:32.254Z,19.69
2022-09-06T01:54:20.223Z,19.76
2022-09-06T01:56:53.951Z,19.81
2022-09-06T01:59:42.036Z,19.81
2022-09-06T02:02:14.600Z,19.78
2022-09-06T02:04:46.092Z,19.77
2022-09-06T02:07:17.795Z,19.74
2022-09-06T02:09:46.892Z,19.97
2022-09-06T02:12:15.240Z,19.89
2022-09-06T02:14:47.250Z,19.60
2022-09-06T02:17:17.189Z,19.54
2022-09-06T02:19:48.637Z,19.66
2022-09-06T02:22:19.946Z,19.63
2022-09-06T02:24:48.738Z,19.66
2022-09-06T02:27:16.342Z,19.67
2022-09-06T02:29:45.920Z,19.54
2022-09-06T02:32:16.232Z,19.56
2022-09-06T02:34:46.087Z,19.61
2022-09-06T02:37:14.739Z,19.75
2022-09-06T02:39:42.381Z,19.72
2022-09-06T02:42:11.518Z,19.68
2022-09-06T02:44:39.127Z,19.70
2022-09-06T02:47:08.329Z,19.69
2022-09-06T02:49:36.315Z,19.69
2022-09-06T02:52:04.323Z,19.56
2022-09-06T02:54:32.514Z,19.55
2022-09-06T02:57:00.099Z,19.62
2022-09-06T02:59:27.703Z,19.61
2022-09-06T03:01:55.301Z,19.77
2022-09-06T03:04:24.290Z,19.54
2022-09-06T03:06:51.878Z,19.51
2022-09-06T03:09:19.458Z,19.36
2022-09-06T03:11:47.031Z,19.35
2022-09-06T03:14:16.156Z,19.18
2022-09-06T03:16:43.901Z,19.53
2022-09-06T03:19:11.545Z,19.49
2022-09-06T03:21:40.524Z,19.15
2022-09-06T03:24:08.171Z,19.43
2022-09-06T03:26:35.767Z,19.23
2022-09-06T03:29:03.363Z,19.20
2022-09-06T03:31:31.316Z,19.23
2022-09-06T03:33:58.980Z,19.37
2022-09-06T03:36:26.668Z,19.39
2022-09-06T03:38:55.738Z,19.22
2022-09-06T03:41:23.343Z,19.37
2022-09-06T03:43:50.914Z,19.45
2022-09-06T03:46:18.557Z,19.19
2022-09-06T03:48:46.188Z,19.40
2022-09-06T03:51:13.800Z,19.16
2022-09-06T03:53:41.376Z,19.36
2022-09-06T03:56:10.316Z,19.36
2022-09-06T03:58:37.918Z,19.25
2022-09-06T04:01:07.286Z,19.38
2022-09-06T04:03:35.711Z,19.24
2022-09-06T04:06:03.744Z,19.21
2022-09-06T04:08:31.782Z,19.02
2022-09-06T04:11:00.230Z,18.97
2022-09-06T04:13:30.426Z,19.08
2022-09-06T04:15:58.197Z,19.36
2022-09-06T04:18:26.482Z,19.05
2022-09-06T04:20:55.908Z,19.22
2022-09-06T04:23:24.598Z,19.27
2022-09-06T04:25:54.110Z,19.27
2022-09-06T04:28:22.643Z,19.23
2022-09-06T04:30:55.024Z,19.10
2022-09-06T04:33:25.722Z,19.15
2022-09-06T04:35:54.026Z,19.09
2022-09-06T04:38:21.968Z,19.00
2022-09-06T04:40:49.723Z,19.00
2022-09-06T04:43:17.457Z,18.78
2022-09-06T04:45:45.726Z,18.76
2022-09-06T04:48:14.748Z,18.74
2022-09-06T04:50:42.556Z,18.73
2022-09-06T04:53:10.874Z,18.75
2022-09-06T04:55:38.859Z,18.73
2022-09-06T04:58:07.060Z,18.67
2022-09-06T05:00:36.387Z,18.62
2022-09-06T05:03:04.043Z,18.64
2022-09-06T05:05:32.988Z,18.64
2022-09-06T05:08:00.598Z,18.61
2022-09-06T05:10:28.213Z,18.61
2022-09-06T05:12:56.004Z,18.58
2022-09-06T05:15:24.359Z,18.48
2022-09-06T05:17:52.156Z,18.43
2022-09-06T05:20:20.103Z,18.65
2022-09-06T05:22:54.688Z,18.34
2022-09-06T05:25:22.505Z,18.12
2022-09-06T05:27:50.149Z,17.99
2022-09-06T05:30:18.316Z,17.88
2022-09-06T05:32:45.965Z,17.86
2022-09-06T05:35:13.865Z,17.79
2022-09-06T05:37:41.516Z,17.77
2022-09-06T05:40:11.434Z,18.11
2022-09-06T05:42:40.960Z,17.57
2022-09-06T05:45:09.127Z,17.29
2022-09-06T05:47:36.811Z,17.25
2022-09-06T05:50:05.032Z,17.18
2022-09-06T05:52:33.864Z,17.03
2022-09-06T05:55:01.555Z,17.08
2022-09-06T05:57:30.518Z,17.45
2022-09-06T05:59:58.093Z,17.72
2022-09-06T06:02:26.115Z,17.46
2022-09-06T06:04:54.447Z,17.56
2022-09-06T06:07:22.035Z,17.57
2022-09-06T06:09:49.602Z,17.67
2022-09-06T06:12:17.425Z,17.38
2022-09-06T06:14:46.347Z,17.29
2022-09-06T06:17:13.997Z,17.34
2022-09-06T06:19:41.576Z,17.76
2022-09-06T06:22:09.251Z,17.70
2022-09-06T06:24:36.869Z,17.50
2022-09-06T06:27:04.736Z,17.63
2022-09-06T06:29:32.321Z,17.72
2022-09-06T06:32:01.307Z,17.60
2022-09-06T06:34:28.922Z,17.47
2022-09-06T06:36:56.506Z,17.44
2022-09-06T06:39:24.137Z,17.54
2022-09-06T06:41:51.740Z,17.80
2022-09-06T06:44:19.353Z,17.69
2022-09-06T06:46:46.922Z,17.94
2022-09-06T06:49:15.856Z,17.95
2022-09-06T06:51:43.492Z,18.10
2022-09-06T06:54:11.120Z,18.34
2022-09-06T06:56:40.709Z,18.75
2022-09-06T06:59:08.774Z,19.05
2022-09-06T07:01:37.231Z,19.04
2022-09-06T07:04:05.175Z,19.09
2022-09-06T07:12:22.518Z,19.67
2022-09-06T07:14:50.103Z,19.98
2022-09-06T07:17:17.695Z,20.02
2022-09-06T07:22:34.204Z,20.67
2022-09-06T07:25:01.833Z,20.61
2022-09-06T07:30:17.296Z,20.47
2022-09-06T07:32:44.878Z,20.67
2022-09-06T07:35:13.760Z,20.48
2022-09-06T07:37:42.706Z,20.98
2022-09-06T07:40:11.731Z,20.62
2022-09-06T07:42:39.440Z,20.94
2022-09-06T07:45:07.810Z,20.64
2022-09-06T07:53:15.413Z,21.06
2022-09-06T07:55:47.104Z,20.98
2022-09-06T07:58:14.727Z,20.96
2022-09-06T08:00:42.331Z,21.00
2022-09-06T08:03:10.165Z,20.87
2022-09-06T08:11:14.702Z,21.01
2022-09-06T08:13:42.638Z,20.84
2022-09-06T08:16:12.552Z,20.97
2022-09-06T08:18:40.214Z,21.17
2022-09-06T08:21:12.471Z,21.33
2022-09-06T08:23:43.704Z,21.41
2022-09-06T08:26:11.862Z,21.33
2022-09-06T08:28:39.491Z,21.49
2022-09-06T08:31:08.354Z,21.50
2022-09-06T08:33:36.666Z,21.34
2022-09-06T08:36:05.012Z,21.55
2022-09-06T08:38:33.018Z,21.71
2022-09-06T08:41:10.458Z,21.70
2022-09-06T08:43:39.576Z,21.89
2022-09-06T08:46:08.906Z,21.79
2022-09-06T08:48:39.643Z,22.07
2022-09-06T08:51:29.504Z,21.93
2022-09-06T08:54:01.508Z,22.12
2022-09-06T08:56:35.228Z,22.22
2022-09-06T08:59:06.492Z,22.21
2022-09-06T09:01:41.329Z,22.16
2022-09-06T09:04:13.487Z,22.32
2022-09-06T09:06:41.064Z,22.61
2022-09-06T09:09:09.985Z,22.48
2022-09-06T09:11:40.325Z,22.44
2022-09-06T09:14:15.540Z,22.73
2022-09-06T09:16:43.587Z,22.99
2022-09-06T09:19:11.363Z,22.86
2022-09-06T09:21:40.363Z,23.12
2022-09-06T09:24:10.613Z,23.16
2022-09-06T09:26:47.470Z,23.20
2022-09-06T09:29:16.010Z,23.46
2022-09-06T09:31:53.327Z,23.42
2022-09-06T09:39:59.436Z,23.49
2022-09-06T09:42:30.922Z,23.68
2022-09-06T09:44:58.696Z,23.59
2022-09-06T09:47:29.006Z,23.67
2022-09-06T09:49:56.616Z,23.81
2022-09-06T09:52:26.997Z,23.93
2022-09-06T09:54:57.799Z,24.03
2022-09-06T09:57:25.457Z,24.16
2022-09-06T09:59:57.075Z,24.31
2022-09-06T10:02:26.475Z,24.42
2022-09-06T10:04:55.182Z,24.57
2022-09-06T10:07:24.513Z,24.63
2022-09-06T10:09:59.514Z,24.60
2022-09-06T10:12:30.607Z,24.56
2022-09-06T10:15:02.423Z,24.28
2022-09-06T10:17:35.108Z,24.47
2022-09-06T10:20:07.704Z,24.46
2022-09-06T10:22:42.630Z,24.80
2022-09-06T10:25:36.407Z,24.81
2022-09-06T10:28:16.039Z,25.10
2022-09-06T10:30:52.826Z,25.24
2022-09-06T10:33:27.543Z,24.94
2022-09-06T10:35:57.489Z,25.01
2022-09-06T10:38:42.955Z,24.93
2022-09-06T10:41:25.014Z,25.17
2022-09-06T10:43:58.937Z,25.20
2022-09-06T10:46:29.116Z,25.26
2022-09-06T10:48:56.749Z,25.21
2022-09-06T10:51:30.811Z,25.37
2022-09-06T10:54:04.759Z,25.69
2022-09-06T10:56:37.234Z,25.94
2022-09-06T11:02:03.762Z,25.62
2022-09-06T11:07:29.376Z,25.76
2022-09-06T11:10:00.649Z,25.70
2022-09-06T11:12:36.408Z,25.59
2022-09-06T11:15:06.060Z,25.66
2022-09-06T11:17:41.080Z,25.79
2022-09-06T11:20:12.816Z,25.69
2022-09-06T11:23:00.046Z,26.05
2022-09-06T11:25:44.116Z,26.17
2022-09-06T11:28:15.120Z,26.32
2022-09-06T11:30:45.021Z,25.78
2022-09-06T11:33:23.895Z,25.87
2022-09-06T11:35:51.979Z,26.13
2022-09-06T11:38:23.410Z,26.37
2022-09-06T11:40:57.459Z,26.30
2022-09-06T11:43:46.164Z,26.08
2022-09-06T11:47:00.128Z,26.23
2022-09-06T11:49:37.470Z,26.45
2022-09-06T11:52:38.586Z,26.35
2022-09-06T11:55:11.016Z,26.71
2022-09-06T11:57:38.640Z,26.85
2022-09-06T12:01:37.992Z,26.70
2022-09-06T12:04:12.050Z,26.42
2022-09-06T12:06:41.397Z,26.66
2022-09-06T12:09:29.701Z,26.75
2022-09-06T12:11:58.167Z,27.00
2022-09-06T12:14:34.340Z,27.32
2022-09-06T12:17:30.874Z,27.22
2022-09-06T12:20:08.686Z,27.27
2022-09-06T12:22:55.184Z,27.21
2022-09-06T12:25:57.031Z,27.27
2022-09-06T12:28:42.854Z,27.36
2022-09-06T12:31:30.005Z,27.28
2022-09-06T12:33:59.983Z,27.12
2022-09-06T12:36:30.198Z,27.32
2022-09-06T12:38:59.597Z,27.53
2022-09-06T12:41:28.287Z,27.49
2022-09-06T12:43:58.115Z,27.40
2022-09-06T12:46:26.588Z,27.70
2022-09-06T12:49:03.511Z,27.55
2022-09-06T12:51:31.179Z,27.39
2022-09-06T12:54:00.143Z,27.47
2022-09-06T12:56:29.159Z,27.71
2022-09-06T12:59:14.086Z,27.95
2022-09-06T13:01:42.888Z,27.96
2022-09-06T13:04:15.707Z,27.98
2022-09-06T13:06:45.990Z,27.94
2022-09-06T13:09:15.290Z,28.20
2022-09-06T13:11:45.599Z,28.33
2022-09-06T13:14:14.783Z,28.04
2022-09-06T13:16:45.239Z,28.28
2022-09-06T13:19:15.696Z,27.98
2022-09-06T13:21:45.126Z,27.81
2022-09-06T13:24:23.011Z,27.72
2022-09-06T13:26:51.090Z,28.19
2022-09-06T13:29:26.487Z,28.02
2022-09-06T13:31:55.627Z,27.94
2022-09-06T13:35:05.669Z,28.41
2022-09-06T13:37:36.198Z,29.20
2022-09-06T13:40:05.724Z,29.31
2022-09-06T13:42:35.836Z,29.70
2022-09-06T13:45:18.014Z,29.76
2022-09-06T13:47:45.592Z,29.97
2022-09-06T13:50:14.853Z,29.48
2022-09-06T13:52:42.419Z,29.06
2022-09-06T13:55:11.344Z,29.30
2022-09-06T13:57:39.169Z,29.71
2022-09-06T14:00:08.019Z,29.49
2022-09-06T14:02:35.727Z,29.72
2022-09-06T14:05:03.668Z,29.60
2022-09-06T14:07:32.656Z,29.17
2022-09-06T14:10:01.001Z,29.32
2022-09-06T14:12:44.040Z,28.70
2022-09-06T14:15:12.953Z,28.68
2022-09-06T14:17:40.611Z,28.31
2022-09-06T14:20:09.540Z,29.00
2022-09-06T14:22:38.598Z,29.13
2022-09-06T14:25:07.522Z,29.23
2022-09-06T14:27:35.997Z,29.38
2022-09-06T14:30:03.676Z,28.87
2022-09-06T14:32:31.285Z,28.29
2022-09-06T14:34:58.823Z,28.05
2022-09-06T14:37:26.817Z,28.15
2022-09-06T14:40:37.895Z,28.41
2022-09-06T14:43:07.136Z,28.51
2022-09-06T14:45:35.259Z,28.51
2022-09-06T14:48:03.347Z,28.33
2022-09-06T14:50:31.273Z,28.56
2022-09-06T14:52:59.216Z,28.94
2022-09-06T14:55:27.534Z,28.81
2022-09-06T14:57:55.208Z,28.75
2022-09-06T15:00:24.313Z,28.35
2022-09-06T15:02:51.984Z,28.52
2022-09-06T15:05:19.721Z,28.40
2022-09-06T15:07:47.675Z,28.33
2022-09-06T15:10:15.503Z,28.47
2022-09-06T15:12:43.150Z,28.58
2022-09-06T15:15:11.251Z,28.08
2022-09-06T15:17:40.278Z,27.94
2022-09-06T15:20:08.566Z,28.18
2022-09-06T15:22:36.552Z,28.47
2022-09-06T15:25:04.293Z,28.66
2022-09-06T15:27:33.146Z,28.83
2022-09-06T15:30:00.873Z,28.76
2022-09-06T15:32:29.281Z,28.47
2022-09-06T15:35:04.277Z,28.24
2022-09-06T15:37:32.393Z,28.35
2022-09-06T15:40:00.162Z,28.29
2022-09-06T15:42:28.110Z,28.27
2022-09-06T15:44:56.256Z,28.15
2022-09-06T15:47:23.920Z,28.05
2022-09-06T15:49:51.756Z,28.23
2022-09-06T15:52:20.815Z,28.03
2022-09-06T15:55:05.829Z,28.00
2022-09-06T15:57:33.503Z,28.28
2022-09-06T16:00:01.170Z,28.52
2022-09-06T16:02:28.916Z,28.47
2022-09-06T16:04:56.872Z,28.59
2022-09-06T16:07:26.151Z,28.50
2022-09-06T16:09:53.841Z,28.26
2022-09-06T16:12:21.511Z,28.04
2022-09-06T16:14:49.158Z,28.00
2022-09-06T16:17:16.810Z,27.91
2022-09-06T16:19:45.509Z,28.02
2022-09-06T16:22:13.314Z,28.08
2022-09-06T16:24:42.314Z,28.03
2022-09-06T16:27:10.023Z,27.88
2022-09-06T16:29:38.304Z,27.97
2022-09-06T16:32:06.189Z,27.75
2022-09-06T16:34:33.848Z,27.53
2022-09-06T16:37:07.659Z,27.42
2022-09-06T16:39:35.428Z,27.42
2022-09-06T16:42:04.791Z,27.33
2022-09-06T16:44:32.495Z,27.13
2022-09-06T16:47:01.578Z,27.09
2022-09-06T16:49:29.238Z,27.19
2022-09-06T16:51:56.880Z,27.28
2022-09-06T16:54:24.547Z,27.10
2022-09-06T16:56:52.499Z,26.85
2022-09-06T16:59:21.653Z,26.73
2022-09-06T17:01:49.593Z,26.56
2022-09-06T17:04:17.332Z,26.40
2022-09-06T17:06:47.870Z,26.19
2022-09-06T17:09:18.603Z,25.99
2022-09-06T17:11:47.555Z,25.85
2022-09-06T17:14:15.219Z,25.72
2022-09-06T17:17:02.125Z,25.61
2022-09-06T17:19:31.210Z,25.51
2022-09-06T17:21:58.995Z,25.45
2022-09-06T17:24:27.342Z,25.43
2022-09-06T17:26:55.180Z,25.38
2022-09-06T17:29:24.434Z,25.29
2022-09-06T17:31:53.510Z,25.24
2022-09-06T17:34:21.172Z,25.21
2022-09-06T17:36:48.882Z,25.11
2022-09-06T17:39:18.524Z,25.01
2022-09-06T17:41:47.649Z,24.85
2022-09-06T17:44:17.013Z,24.73
2022-09-06T17:47:02.762Z,24.60
2022-09-06T17:49:34.603Z,24.31
2022-09-06T17:52:02.278Z,24.13
2022-09-06T17:54:31.611Z,23.99
2022-09-06T17:56:59.268Z,23.96
2022-09-06T17:59:29.440Z,23.93
2022-09-06T18:01:59.296Z,23.83
2022-09-06T18:04:26.943Z,23.74
2022-09-06T18:06:55.988Z,23.73
2022-09-06T18:09:23.639Z,23.56
2022-09-06T18:11:51.304Z,23.40
2022-09-06T18:14:20.752Z,23.25
2022-09-06T18:16:49.879Z,23.07
2022-09-06T18:19:18.654Z,22.99
2022-09-06T18:21:46.591Z,22.84
2022-09-06T18:24:16.361Z,22.71
2022-09-06T18:26:44.591Z,22.56
2022-09-06T18:29:14.672Z,22.51
2022-09-06T18:31:42.762Z,22.44
2022-09-06T18:34:10.876Z,22.38
2022-09-06T18:36:39.377Z,22.38
2022-09-06T18:39:07.445Z,22.50
2022-09-06T18:41:53.896Z,22.55
2022-09-06T18:44:22.377Z,22.51
2022-09-06T18:46:50.390Z,22.78
2022-09-06T18:49:18.332Z,23.27
2022-09-06T18:51:46.358Z,23.40
2022-09-06T18:54:14.157Z,23.27
2022-09-06T18:56:44.724Z,23.05
2022-09-06T18:59:13.136Z,23.28
2022-09-06T19:01:40.986Z,23.23
2022-09-06T19:04:08.849Z,23.49
2022-09-06T19:06:37.987Z,23.27
2022-09-06T19:09:08.610Z,23.43
2022-09-06T19:11:36.694Z,23.46
2022-09-06T19:14:06.034Z,23.44
2022-09-06T19:16:33.822Z,23.29
2022-09-06T19:19:06.397Z,23.01
2022-09-06T19:21:37.942Z,22.89
2022-09-06T19:24:10.153Z,22.73
2022-09-06T19:26:39.399Z,22.80
2022-09-06T19:29:09.854Z,22.89
2022-09-06T19:31:38.819Z,22.58
2022-09-06T19:34:07.338Z,22.29
2022-09-06T19:36:35.159Z,22.30
2022-09-06T19:39:06.127Z,21.87
2022-09-06T19:41:35.716Z,21.54
2022-09-06T19:44:05.604Z,21.42
2022-09-06T19:46:35.425Z,21.31
2022-09-06T19:49:03.276Z,21.32
2022-09-06T19:51:31.562Z,21.66
2022-09-06T19:53:59.766Z,22.02
2022-09-06T19:56:29.989Z,21.65
2022-09-06T19:58:59.004Z,21.44
2022-09-06T20:01:29.238Z,21.42
2022-09-06T20:03:58.829Z,21.23
2022-09-06T20:06:27.006Z,21.16
2022-09-06T20:08:56.147Z,21.12
2022-09-06T20:11:29.532Z,21.12
2022-09-06T20:13:57.740Z,21.05
2022-09-06T20:16:26.485Z,21.29
2022-09-06T20:18:55.247Z,21.40
2022-09-06T20:21:24.283Z,21.31
2022-09-06T20:23:54.385Z,21.26
2022-09-06T20:26:23.737Z,21.59
2022-09-06T20:28:55.613Z,21.10
2022-09-06T20:31:23.687Z,20.99
2022-09-06T20:33:51.555Z,20.88
2022-09-06T20:36:19.517Z,20.80
2022-09-06T20:38:49.433Z,20.79
2022-09-06T20:41:18.497Z,20.79
2022-09-06T20:43:46.446Z,21.23
2022-09-06T20:46:16.182Z,21.24
2022-09-06T20:48:45.371Z,21.33
2022-09-06T20:51:14.851Z,21.18
2022-09-06T20:53:42.626Z,20.87
2022-09-06T20:56:13.579Z,21.12
2022-09-06T20:58:41.755Z,21.22
2022-09-06T21:01:10.602Z,21.17
2022-09-06T21:03:40.514Z,21.38
2022-09-06T21:06:09.136Z,21.39
2022-09-06T21:08:42.030Z,21.35
2022-09-06T21:11:12.098Z,21.12
2022-09-06T21:13:40.320Z,21.07
2022-09-06T21:16:08.551Z,21.06
2022-09-06T21:18:36.843Z,20.90
2022-09-06T21:21:06.486Z,20.76
2022-09-06T21:23:35.859Z,20.76
2022-09-06T21:26:06.081Z,20.71
2022-09-06T21:28:36.466Z,20.65
2022-09-06T21:31:05.927Z,20.54
2022-09-06T21:33:34.053Z,20.60
2022-09-06T21:36:06.644Z,20.53
2022-09-06T21:38:34.389Z,20.59
2022-09-06T21:41:02.238Z,20.42
2022-09-06T21:43:30.039Z,20.67
2022-09-06T21:46:01.650Z,20.59
2022-09-06T21:48:29.442Z,20.60
2022-09-06T21:50:57.262Z,20.65
2022-09-06T21:53:27.034Z,20.63
2022-09-06T21:56:00.483Z,20.61
2022-09-06T21:58:28.698Z,20.66
2022-09-06T22:00:59.323Z,20.66
2022-09-06T22:03:27.259Z,20.56
2022-09-06T22:05:55.051Z,20.42
2022-09-06T22:08:23.386Z,20.32
2022-09-06T22:10:51.048Z,20.35
2022-09-06T22:13:19.855Z,20.41
2022-09-06T22:15:47.588Z,20.41
2022-09-06T22:18:16.642Z,20.39
2022-09-06T22:20:44.320Z,20.20
2022-09-06T22:23:12.431Z,19.98
2022-09-06T22:25:40.888Z,20.05
2022-09-06T22:28:08.526Z,20.01
2022-09-06T22:30:36.283Z,20.17
2022-09-06T22:33:03.939Z,20.47
2022-09-06T22:35:32.939Z,20.45
2022-09-06T22:38:00.593Z,20.42
2022-09-06T22:40:28.256Z,20.43
2022-09-06T22:42:55.911Z,20.40
2022-09-06T22:45:23.587Z,20.16
2022-09-06T22:47:51.519Z,20.35
2022-09-06T22:50:19.179Z,20.07
2022-09-06T22:52:48.187Z,19.83
2022-09-06T22:55:15.927Z,19.91
2022-09-06T22:57:43.633Z,19.94
2022-09-06T23:00:13.030Z,19.65
2022-09-06T23:02:40.664Z,19.53
2022-09-06T23:05:09.032Z,19.54
2022-09-06T23:07:36.688Z,19.57
2022-09-06T23:10:06.806Z,19.50
2022-09-06T23:12:34.530Z,19.45
2022-09-06T23:15:02.191Z,19.31
2022-09-06T23:17:30.291Z,19.24
2022-09-06T23:19:57.960Z,19.30
2022-09-06T23:22:25.679Z,19.17
2022-09-06T23:24:53.373Z,19.17
2022-09-06T23:27:22.402Z,19.07
2022-09-06T23:29:50.079Z,19.13
2022-09-06T23:32:17.787Z,19.06
2022-09-06T23:34:46.025Z,18.98
2022-09-06T23:37:13.691Z,19.08
2022-09-06T23:39:41.419Z,19.08
2022-09-06T23:42:09.180Z,19.03
2022-09-06T23:44:38.198Z,19.17
2022-09-06T23:47:05.991Z,19.43
2022-09-06T23:49:33.666Z,19.29
2022-09-06T23:52:01.306Z,19.21
2022-09-06T23:54:28.977Z,19.24
2022-09-06T23:56:56.642Z,19.20
2022-09-06T23:59:24.321Z,19.22
